Time;durP1;ratioP1;P1;durP2;ratioP2;P2;SDS_P1;SDS_P2;PMS_P1;PMS_P2;Temp;Humidity;BMP_temperature;BMP_pressure;BME280_temperature;BME280_humidity;BME280_pressure;Samples;Min_cycle;Max_cycle;Signal;HPM_P1;HPM_P2
2021/01/04 00:00:32;;;;;;;11.00;7.28;;;2.90;99.90;;;;;;5053473;28;20287;-70
2021/01/04 00:03:29;;;;;;;10.35;7.07;;;2.90;99.90;;;;;;5068607;28;20086;-70
2021/01/04 00:06:07;;;;;;;10.45;6.70;;;2.90;99.90;;;;;;5072949;28;20396;-69
2021/01/04 00:08:52;;;;;;;12.70;7.80;;;3.00;99.90;;;;;;5054040;28;20075;-69
2021/01/04 00:11:34;;;;;;;10.48;6.97;;;3.00;99.90;;;;;;5060086;28;20453;-70
2021/01/04 00:14:11;;;;;;;10.80;6.40;;;3.00;99.90;;;;;;5052524;28;20091;-69
2021/01/04 00:16:55;;;;;;;11.95;7.25;;;3.00;99.90;;;;;;5057904;28;20400;-69
2021/01/04 00:19:51;;;;;;;11.25;6.15;;;3.00;99.90;;;;;;5065971;28;20592;-69
2021/01/04 00:22:33;;;;;;;;;;;2.90;99.90;;;;;;5064326;28;20493;-69
2021/01/04 00:25:20;;;;;;;12.20;7.15;;;2.90;99.90;;;;;;5070101;28;19911;-69
2021/01/04 00:27:57;;;;;;;10.73;6.50;;;2.90;99.90;;;;;;5058768;28;20462;-69
2021/01/04 00:30:29;;;;;;;11.93;7.20;;;2.90;99.90;;;;;;5053724;28;20033;-69
2021/01/04 00:32:58;;;;;;;11.15;6.68;;;2.90;99.90;;;;;;5069187;28;20492;-70
2021/01/04 00:35:25;;;;;;;12.32;6.53;;;2.90;99.90;;;;;;5072889;28;20084;-69
2021/01/04 00:37:59;;;;;;;10.60;7.32;;;3.00;99.90;;;;;;5071173;28;20056;-70
2021/01/04 00:40:58;;;;;;;11.05;7.05;;;3.00;99.90;;;;;;5072368;28;20040;-69
2021/01/04 00:43:42;;;;;;;11.00;6.25;;;3.00;99.90;;;;;;5052938;28;20500;-69
2021/01/04 00:46:08;;;;;;;9.48;5.65;;;2.90;99.90;;;;;;5053422;28;20028;-69
2021/01/04 00:48:44;;;;;;;11.23;7.32;;;3.00;99.90;;;;;;5053583;28;20481;-70
2021/01/04 00:51:25;;;;;;;11.63;7.05;;;3.00;99.90;;;;;;5053916;28;20025;-70
2021/01/04 00:53:52;;;;;;;8.90;5.80;;;3.00;99.90;;;;;;5053717;28;20037;-70
2021/01/04 00:56:43;;;;;;;10.25;6.43;;;2.90;99.90;;;;;;5054354;28;20033;-70
2021/01/04 00:59:32;;;;;;;9.25;6.72;;;2.90;99.90;;;;;;5072712;28;20116;-70
2021/01/04 01:02:26;;;;;;;11.82;7.00;;;2.90;99.90;;;;;;5064424;28;20029;-70
2021/01/04 01:05:21;;;;;;;11.40;6.18;;;3.00;99.90;;;;;;5053132;28;20100;-69
2021/01/04 01:08:05;;;;;;;11.52;7.40;;;3.00;99.90;;;;;;5065629;28;20039;-70
2021/01/04 01:10:36;;;;;;;9.77;6.60;;;3.00;99.90;;;;;;5052792;28;20029;-70
2021/01/04 01:13:24;;;;;;;10.75;6.72;;;3.00;99.90;;;;;;5052686;28;20028;-69
2021/01/04 01:16:03;;;;;;;10.43;7.07;;;3.00;99.90;;;;;;5070832;28;20077;-71
2021/01/04 01:18:33;;;;;;;10.70;6.63;;;3.00;99.90;;;;;;5055257;28;20031;-71
2021/01/04 01:21:02;;;;;;;11.90;6.70;;;3.00;99.90;;;;;;5052242;28;20040;-70
2021/01/04 01:23:28;;;;;;;11.18;6.93;;;3.00;99.90;;;;;;5058196;28;20048;-70
2021/01/04 01:26:15;;;;;;;10.50;7.22;;;3.10;99.90;;;;;;5052132;28;20040;-71
2021/01/04 01:29:18;;;;;;;10.38;6.78;;;3.10;99.90;;;;;;5052832;28;20243;-71
2021/01/04 01:31:50;;;;;;;10.68;6.18;;;3.10;99.90;;;;;;5038774;28;20032;-71
2021/01/04 01:34:30;;;;;;;10.70;6.78;;;3.10;99.90;;;;;;5071961;28;20079;-71
2021/01/04 01:37:20;;;;;;;10.00;6.05;;;3.10;99.90;;;;;;5063054;28;20024;-71
2021/01/04 01:40:15;;;;;;;9.77;6.50;;;3.10;99.90;;;;;;5062807;28;20028;-71
2021/01/04 01:42:59;;;;;;;11.33;6.00;;;3.10;99.90;;;;;;5070276;28;20039;-71
2021/01/04 01:45:51;;;;;;;9.93;6.28;;;3.10;99.90;;;;;;5053356;28;20279;-71
2021/01/04 01:48:27;;;;;;;12.07;7.00;;;3.00;99.90;;;;;;5052484;28;20025;-71
2021/01/04 01:51:29;;;;;;;9.45;6.07;;;3.10;99.90;;;;;;5051394;28;20028;-71
2021/01/04 01:54:16;;;;;;;10.25;6.53;;;3.10;99.90;;;;;;4988680;28;20046;-71
2021/01/04 01:57:17;;;;;;;10.38;5.78;;;3.10;99.90;;;;;;5065242;28;20028;-71
2021/01/04 02:00:12;;;;;;;9.07;5.55;;;3.10;99.90;;;;;;5071533;28;20032;-71
2021/01/04 02:03:08;;;;;;;8.68;5.63;;;3.10;99.90;;;;;;5051866;28;20056;-70
2021/01/04 02:05:58;;;;;;;;;;;3.10;99.90;;;;;;5052408;28;20776;-71
2021/01/04 02:08:27;;;;;;;9.63;6.70;;;3.10;99.90;;;;;;5057655;28;19912;-70
2021/01/04 02:11:01;;;;;;;7.82;5.43;;;3.10;99.90;;;;;;5071695;28;20056;-70
2021/01/04 02:13:35;;;;;;;8.88;6.15;;;3.10;99.90;;;;;;5070579;28;20081;-70
2021/01/04 02:16:13;;;;;;;9.38;5.95;;;3.10;99.90;;;;;;5070308;28;20031;-71
2021/01/04 02:19:08;;;;;;;9.57;5.60;;;3.10;99.90;;;;;;5052246;28;20040;-70
2021/01/04 02:21:49;;;;;;;9.02;5.68;;;3.10;99.90;;;;;;5055122;28;20529;-71
2021/01/04 02:24:16;;;;;;;7.50;5.07;;;3.10;99.90;;;;;;5070277;28;20017;-71
2021/01/04 02:26:48;;;;;;;10.00;6.35;;;3.10;99.90;;;;;;5064923;28;20028;-72
2021/01/04 02:29:19;;;;;;;6.82;4.63;;;3.10;99.90;;;;;;5051380;28;20033;-72
2021/01/04 02:31:51;;;;;;;7.95;5.30;;;3.10;99.90;;;;;;5052404;28;20039;-72
2021/01/04 02:34:21;;;;;;;9.00;5.30;;;3.10;99.90;;;;;;5050548;28;20106;-72
2021/01/04 02:36:52;;;;;;;7.72;5.15;;;3.10;99.90;;;;;;5055164;28;20043;-73
2021/01/04 02:39:28;;;;;;;9.38;5.35;;;3.20;99.90;;;;;;5079668;28;20046;-73
2021/01/04 02:42:05;;;;;;;6.63;4.38;;;3.20;99.90;;;;;;5072727;28;20087;-73
2021/01/04 02:44:30;;;;;;;7.97;4.88;;;3.20;99.90;;;;;;5051517;28;20382;-73
2021/01/04 02:47:08;;;;;;;7.15;4.63;;;3.30;99.90;;;;;;5057265;28;20068;-73
2021/01/04 02:50:08;;;;;;;8.38;5.28;;;3.20;99.90;;;;;;5069837;28;20500;-73
2021/01/04 02:52:55;;;;;;;7.35;4.95;;;3.20;99.90;;;;;;5061006;28;20306;-72
2021/01/04 02:55:46;;;;;;;7.63;5.05;;;3.30;99.90;;;;;;5050875;28;20045;-72
2021/01/04 02:58:17;;;;;;;7.65;4.35;;;3.20;99.90;;;;;;5051314;28;20037;-72
2021/01/04 03:00:50;;;;;;;7.82;4.60;;;3.30;99.90;;;;;;5051656;28;20071;-72
2021/01/04 03:03:17;;;;;;;8.55;4.88;;;3.30;99.90;;;;;;5062347;28;20025;-72
2021/01/04 03:05:43;;;;;;;7.30;4.95;;;3.30;99.90;;;;;;5070655;28;20024;-72
2021/01/04 03:08:09;;;;;;;5.95;4.35;;;3.30;99.90;;;;;;5066292;28;20111;-72
2021/01/04 03:10:38;;;;;;;7.97;5.05;;;3.20;99.90;;;;;;5070988;28;20115;-73
2021/01/04 03:13:29;;;;;;;7.28;5.03;;;3.30;99.90;;;;;;5059074;28;20037;-72
2021/01/04 03:16:02;;;;;;;8.32;4.55;;;3.30;99.90;;;;;;5051172;28;20021;-73
2021/01/04 03:18:40;;;;;;;5.90;4.20;;;3.30;99.90;;;;;;5052816;28;20033;-72
2021/01/04 03:21:06;;;;;;;7.82;4.75;;;3.30;99.90;;;;;;5055060;28;20039;-72
2021/01/04 03:23:33;;;;;;;6.82;4.40;;;3.30;99.90;;;;;;5055332;28;20121;-73
2021/01/04 03:26:10;;;;;;;7.20;4.68;;;3.30;99.90;;;;;;5056143;28;20040;-72
2021/01/04 03:28:36;;;;;;;6.95;4.97;;;3.30;99.90;;;;;;5069156;28;20024;-72
2021/01/04 03:31:05;;;;;;;7.35;4.13;;;3.30;99.90;;;;;;5074281;28;20025;-72
2021/01/04 03:33:31;;;;;;;7.43;4.68;;;3.30;99.90;;;;;;5073209;28;20086;-73
2021/01/04 03:35:57;;;;;;;7.47;4.60;;;3.30;99.90;;;;;;5073787;28;20407;-73
2021/01/04 03:38:23;;;;;;;7.25;4.97;;;3.20;99.90;;;;;;5060825;28;20033;-73
2021/01/04 03:40:49;;;;;;;8.35;5.53;;;3.30;99.90;;;;;;5052991;28;20040;-73
2021/01/04 03:43:15;;;;;;;8.23;4.55;;;3.30;99.90;;;;;;5054720;28;20025;-73
2021/01/04 03:45:41;;;;;;;5.93;4.13;;;3.20;99.90;;;;;;5054697;28;20032;-73
2021/01/04 03:48:07;;;;;;;8.27;4.65;;;3.30;99.90;;;;;;5053572;28;20032;-73
2021/01/04 03:50:32;;;;;;;7.53;4.68;;;3.20;99.90;;;;;;5052858;28;20025;-74
2021/01/04 03:52:58;;;;;;;7.32;4.57;;;3.30;99.90;;;;;;5062771;28;20109;-73
2021/01/04 03:55:23;;;;;;;7.93;4.80;;;3.30;99.90;;;;;;5063903;28;20037;-74
2021/01/04 03:57:49;;;;;;;7.32;4.45;;;3.30;99.90;;;;;;5061710;28;20092;-74
2021/01/04 04:00:16;;;;;;;6.57;4.35;;;3.20;99.90;;;;;;5074658;28;20111;-73
2021/01/04 04:02:43;;;;;;;6.60;4.47;;;3.20;99.90;;;;;;5071334;28;20029;-73
2021/01/04 04:05:10;;;;;;;7.60;4.70;;;3.20;99.90;;;;;;5073445;28;20499;-74
2021/01/04 04:07:35;;;;;;;8.50;4.40;;;3.20;99.90;;;;;;5066589;28;20028;-72
2021/01/04 04:10:02;;;;;;;6.53;4.68;;;3.20;99.90;;;;;;5054209;28;20032;-71
2021/01/04 04:12:27;;;;;;;7.03;4.47;;;3.20;99.90;;;;;;5057921;28;20085;-73
2021/01/04 04:14:53;;;;;;;9.45;4.97;;;3.20;99.90;;;;;;5074549;28;20119;-74
2021/01/04 04:17:19;;;;;;;7.22;4.88;;;3.20;99.90;;;;;;5067366;28;20033;-73
2021/01/04 04:19:46;;;;;;;7.32;4.53;;;3.20;99.90;;;;;;5054620;28;20453;-74
2021/01/04 04:22:11;;;;;;;9.20;4.85;;;3.10;99.90;;;;;;5055461;28;20109;-73
2021/01/04 04:24:42;;;;;;;7.32;4.40;;;3.10;99.90;;;;;;5074247;28;20078;-74
2021/01/04 04:27:09;;;;;;;7.57;4.78;;;3.10;99.90;;;;;;5071135;28;20028;-73
2021/01/04 04:29:36;;;;;;;5.80;4.20;;;3.10;99.90;;;;;;5073458;28;20114;-73
2021/01/04 04:32:01;;;;;;;7.75;4.30;;;3.20;99.90;;;;;;5070730;28;20036;-73
2021/01/04 04:34:27;;;;;;;6.88;4.03;;;3.20;99.90;;;;;;5053359;28;20028;-73
2021/01/04 04:36:52;;;;;;;8.63;4.88;;;3.20;99.90;;;;;;5053118;28;20029;-73
2021/01/04 04:39:18;;;;;;;8.07;4.40;;;3.20;99.90;;;;;;5073549;28;20119;-73
2021/01/04 04:41:46;;;;;;;6.18;3.95;;;3.20;99.90;;;;;;5071498;28;20330;-73
2021/01/04 04:44:29;;;;;;;5.93;4.00;;;3.20;99.90;;;;;;5052434;28;20470;-74
2021/01/04 04:47:31;;;;;;;6.40;4.20;;;3.20;99.90;;;;;;5052471;28;20040;-75
2021/01/04 04:50:20;;;;;;;6.28;4.65;;;3.10;99.90;;;;;;5057865;28;20075;-74
2021/01/04 04:53:20;;;;;;;6.78;4.30;;;3.10;99.90;;;;;;5060585;28;20070;-75
2021/01/04 04:56:24;;;;;;;5.70;4.10;;;3.10;99.90;;;;;;5072963;28;20071;-73
2021/01/04 04:59:30;;;;;;;7.30;4.47;;;3.10;99.90;;;;;;5055501;28;20056;-73
2021/01/04 05:02:11;;;;;;;7.57;4.57;;;3.10;99.90;;;;;;5052799;28;20044;-73
2021/01/04 05:05:09;;;;;;;7.85;4.03;;;3.10;99.90;;;;;;5072078;28;20040;-73
2021/01/04 05:08:01;;;;;;;7.28;4.13;;;3.10;99.90;;;;;;5060644;28;20488;-73
2021/01/04 05:10:33;;;;;;;6.60;4.43;;;3.10;99.90;;;;;;5064480;28;20124;-73
2021/01/04 05:13:21;;;;;;;7.05;4.50;;;3.20;99.90;;;;;;5070824;28;20036;-73
2021/01/04 05:15:55;;;;;;;7.32;4.28;;;3.20;99.90;;;;;;5072401;28;20086;-73
2021/01/04 05:18:52;;;;;;;7.50;4.47;;;3.20;99.90;;;;;;5057191;28;20039;-73
2021/01/04 05:21:47;;;;;;;6.97;4.28;;;3.20;99.90;;;;;;5052333;28;20147;-72
2021/01/04 05:24:30;;;;;;;6.75;4.43;;;3.10;99.90;;;;;;5053180;28;20171;-72
2021/01/04 05:27:17;;;;;;;6.10;4.03;;;3.10;99.90;;;;;;5052964;28;20032;-72
2021/01/04 05:30:12;;;;;;;7.75;4.90;;;3.10;99.90;;;;;;5071875;28;20107;-71
2021/01/04 05:33:02;;;;;;;8.27;4.50;;;3.10;99.90;;;;;;5065216;28;20246;-71
2021/01/04 05:35:28;;;;;;;7.07;4.10;;;3.10;99.90;;;;;;5052411;28;20029;-72
2021/01/04 05:38:25;;;;;;;7.90;4.30;;;3.10;99.90;;;;;;5056970;28;20082;-72
2021/01/04 05:41:19;;;;;;;5.57;4.13;;;3.00;99.90;;;;;;5052410;28;20112;-72
2021/01/04 05:44:14;;;;;;;8.73;4.15;;;3.10;99.90;;;;;;5061310;28;20067;-72
2021/01/04 05:46:49;;;;;;;7.00;4.40;;;3.00;99.90;;;;;;5052659;28;20029;-73
2021/01/04 05:49:48;;;;;;;7.78;4.68;;;3.00;99.90;;;;;;5052519;28;20403;-73
2021/01/04 05:52:16;;;;;;;7.63;4.65;;;3.10;99.90;;;;;;5039605;28;20090;-73
2021/01/04 05:54:42;;;;;;;7.50;4.50;;;3.00;99.90;;;;;;5071343;28;20443;-73
2021/01/04 05:57:14;;;;;;;8.07;4.50;;;3.00;99.90;;;;;;5069036;28;20078;-72
2021/01/04 06:00:09;;;;;;;7.30;4.60;;;3.10;99.90;;;;;;5061260;28;20033;-72
2021/01/04 06:02:34;;;;;;;6.43;4.05;;;3.10;99.90;;;;;;5048705;28;20412;-72
2021/01/04 06:05:16;;;;;;;5.90;4.22;;;3.10;99.90;;;;;;5052034;28;20056;-72
2021/01/04 06:07:44;;;;;;;6.20;3.90;;;3.20;99.90;;;;;;5051160;28;20029;-72
2021/01/04 06:10:32;;;;;;;8.70;4.78;;;3.10;99.90;;;;;;5050944;28;20438;-72
2021/01/04 06:12:58;;;;;;;6.45;4.00;;;3.10;99.90;;;;;;5050323;28;20033;-72
2021/01/04 06:15:28;;;;;;;7.72;5.13;;;3.10;99.90;;;;;;5070441;28;20451;-71
2021/01/04 06:18:02;;;;;;;7.32;4.72;;;3.10;99.90;;;;;;5058063;28;20021;-72
2021/01/04 06:20:41;;;;;;;5.63;3.70;;;3.10;99.90;;;;;;5051181;28;20420;-73
2021/01/04 06:23:20;;;;;;;8.88;5.13;;;3.10;99.90;;;;;;5060230;28;20025;-73
2021/01/04 06:25:52;;;;;;;8.77;4.60;;;3.10;99.90;;;;;;5071158;28;20091;-73
2021/01/04 06:28:17;;;;;;;10.10;5.82;;;3.10;99.90;;;;;;5060986;28;20033;-72
2021/01/04 06:30:43;;;;;;;6.25;4.25;;;3.10;99.90;;;;;;5053007;28;20029;-72
2021/01/04 06:33:24;;;;;;;7.50;4.43;;;3.10;99.90;;;;;;5059730;28;20111;-73
2021/01/04 06:36:00;;;;;;;8.88;5.05;;;3.10;99.90;;;;;;5071315;28;20485;-72
2021/01/04 06:38:31;;;;;;;8.05;4.43;;;3.10;99.90;;;;;;5055313;28;20056;-72
2021/01/04 06:40:57;;;;;;;8.77;5.97;;;3.00;99.90;;;;;;5049350;28;20527;-73
2021/01/04 06:43:31;;;;;;;10.25;5.97;;;3.00;99.90;;;;;;5061875;28;20020;-72
2021/01/04 06:46:18;;;;;;;8.37;4.67;;;3.00;99.90;;;;;;5069939;28;20468;-73
2021/01/04 06:49:18;;;;;;;9.05;5.60;;;3.00;99.90;;;;;;5064064;28;20477;-74
2021/01/04 06:52:14;;;;;;;9.77;5.80;;;3.10;99.90;;;;;;5050320;28;20505;-73
2021/01/04 06:55:05;;;;;;;9.10;5.68;;;3.00;99.90;;;;;;5049066;28;20080;-74
2021/01/04 06:58:00;;;;;;;8.52;5.43;;;3.00;99.90;;;;;;5060007;28;20024;-74
2021/01/04 07:01:13;;;;;;;7.45;4.65;;;3.10;99.90;;;;;;5070393;28;20043;-74
2021/01/04 07:04:06;;;;;;;7.40;4.93;;;3.00;99.90;;;;;;5061537;28;20063;-72
2021/01/04 07:07:04;;;;;;;7.07;4.82;;;3.10;99.90;;;;;;5055271;28;20143;-72
2021/01/04 07:09:52;;;;;;;8.70;5.55;;;3.00;99.90;;;;;;5067244;28;20123;-72
2021/01/04 07:12:29;;;;;;;7.88;5.15;;;3.00;99.90;;;;;;5081438;28;20033;-71
2021/01/04 07:15:03;;;;;;;7.75;5.45;;;3.00;99.90;;;;;;5051479;28;20029;-72
2021/01/04 07:17:50;;;;;;;9.70;5.22;;;3.00;99.90;;;;;;5055244;28;20116;-72
2021/01/04 07:20:44;;;;;;;8.43;5.55;;;3.00;99.90;;;;;;5051372;28;20080;-73
2021/01/04 07:23:32;;;;;;;8.98;5.25;;;3.10;99.90;;;;;;5062800;28;20039;-72
2021/01/04 07:26:31;;;;;;;8.30;5.13;;;3.00;99.90;;;;;;5054257;28;20063;-72
2021/01/04 07:29:33;;;;;;;7.47;5.07;;;3.10;99.90;;;;;;5051178;28;20040;-73
2021/01/04 07:32:24;;;;;;;11.43;6.07;;;3.10;99.90;;;;;;5052625;28;20052;-72
2021/01/04 07:35:01;;;;;;;8.93;5.53;;;3.10;99.90;;;;;;5065032;28;20029;-72
2021/01/04 07:37:43;;;;;;;7.53;4.93;;;3.10;99.90;;;;;;5055383;28;20046;-72
2021/01/04 07:40:46;;;;;;;7.88;5.55;;;3.10;99.90;;;;;;5062807;28;20033;-72
2021/01/04 07:43:24;;;;;;;8.60;5.25;;;3.10;99.90;;;;;;5051617;28;20043;-72
2021/01/04 07:46:02;;;;;;;8.25;5.35;;;3.20;99.90;;;;;;5051052;28;20076;-71
2021/01/04 07:49:02;;;;;;;8.63;5.40;;;3.20;99.90;;;;;;5050444;28;20102;-72
2021/01/04 07:51:44;;;;;;;8.00;5.18;;;3.20;99.90;;;;;;5063464;28;20381;-73
2021/01/04 07:54:12;;;;;;;8.00;5.00;;;3.20;99.90;;;;;;5051488;28;20131;-73
2021/01/04 07:56:57;;;;;;;8.43;5.43;;;3.20;99.90;;;;;;5056709;28;20059;-73
2021/01/04 07:59:47;;;;;;;8.63;5.22;;;3.20;99.90;;;;;;5071077;28;20024;-73
2021/01/04 08:02:53;;;;;;;8.60;5.22;;;3.20;99.90;;;;;;5062113;28;20923;-71
2021/01/04 08:05:31;;;;;;;9.20;5.88;;;3.20;99.90;;;;;;5035401;28;20045;-67
2021/01/04 08:08:19;;;;;;;8.75;5.07;;;3.20;99.90;;;;;;5059015;28;20033;-65
2021/01/04 08:11:08;;;;;;;9.30;5.78;;;3.20;99.90;;;;;;5061949;28;20024;-66
2021/01/04 08:14:10;;;;;;;12.30;6.25;;;3.20;99.90;;;;;;5058053;28;20021;-66
2021/01/04 08:16:49;;;;;;;9.18;5.20;;;3.20;99.90;;;;;;5057951;28;20104;-67
2021/01/04 08:19:17;;;;;;;8.43;5.60;;;3.20;99.90;;;;;;5052325;28;20033;-66
2021/01/04 08:21:57;;;;;;;11.10;6.32;;;3.20;99.90;;;;;;5053360;28;20040;-67
2021/01/04 08:24:43;;;;;;;20.75;10.52;;;3.30;99.90;;;;;;5054204;28;20497;-70
2021/01/04 08:27:41;;;;;;;20.45;11.02;;;3.30;99.90;;;;;;5065555;28;20033;-69
2021/01/04 08:30:23;;;;;;;14.98;9.30;;;3.30;99.90;;;;;;5030174;28;20037;-69
2021/01/04 08:33:04;;;;;;;12.50;7.90;;;3.30;99.90;;;;;;5055364;28;20044;-69
2021/01/04 08:35:29;;;;;;;11.63;6.97;;;3.40;99.90;;;;;;5054061;28;20040;-69
2021/01/04 08:37:59;;;;;;;15.40;9.73;;;3.30;99.90;;;;;;5054053;28;20029;-70
2021/01/04 08:40:35;;;;;;;17.33;9.88;;;3.20;99.90;;;;;;5053786;28;20029;-70
2021/01/04 08:43:09;;;;;;;13.85;8.20;;;3.20;99.90;;;;;;5053906;28;20083;-69
2021/01/04 08:45:45;;;;;;;23.30;12.48;;;3.30;99.90;;;;;;5052055;28;20071;-70
2021/01/04 08:48:34;;;;;;;11.30;8.38;;;3.20;99.90;;;;;;5064358;28;20036;-69
2021/01/04 08:51:05;;;;;;;16.55;9.93;;;3.20;99.90;;;;;;5061874;28;20025;-69
2021/01/04 08:53:30;;;;;;;16.30;9.88;;;3.20;99.90;;;;;;5056706;28;20056;-69
2021/01/04 08:56:26;;;;;;;19.65;12.48;;;3.20;99.90;;;;;;5064055;28;20032;-69
2021/01/04 08:58:52;;;;;;;17.95;9.23;;;3.30;99.90;;;;;;5056659;28;20040;-70
2021/01/04 09:01:24;;;;;;;15.93;8.15;;;3.30;99.90;;;;;;5073255;28;20086;-69
2021/01/04 09:04:02;;;;;;;12.98;7.82;;;3.30;99.90;;;;;;5069452;28;20157;-69
2021/01/04 09:06:34;;;;;;;14.95;8.45;;;3.30;99.90;;;;;;5063295;28;20119;-68
2021/01/04 09:09:20;;;;;;;17.25;8.60;;;3.40;99.90;;;;;;5054231;28;20032;-68
2021/01/04 09:12:25;;;;;;;17.60;10.90;;;3.40;99.90;;;;;;5080064;28;20028;-69
2021/01/04 09:14:56;;;;;;;18.42;9.68;;;3.40;99.90;;;;;;5055543;28;20028;-69
2021/01/04 09:17:52;;;;;;;16.38;8.40;;;3.40;99.90;;;;;;5069949;28;20095;-68
2021/01/04 09:20:20;;;;;;;15.23;8.15;;;3.40;99.90;;;;;;5057747;28;20033;-68
2021/01/04 09:22:47;;;;;;;14.43;7.93;;;3.40;99.90;;;;;;5053410;28;20043;-69
2021/01/04 09:25:41;;;;;;;14.98;8.88;;;3.50;99.90;;;;;;5060534;28;20017;-70
2021/01/04 09:28:08;;;;;;;13.35;8.10;;;3.50;99.90;;;;;;5069080;28;20029;-70
2021/01/04 09:30:33;;;;;;;16.40;8.57;;;3.50;99.90;;;;;;5062750;28;20039;-70
2021/01/04 09:33:24;;;;;;;17.10;8.20;;;3.50;99.90;;;;;;5065254;28;20116;-70
2021/01/04 09:35:50;;;;;;;14.05;8.57;;;3.50;99.90;;;;;;5066258;28;20071;-70
2021/01/04 09:38:25;;;;;;;16.67;9.80;;;3.60;99.90;;;;;;5059114;28;20076;-69
2021/01/04 09:40:53;;;;;;;;;;;3.60;99.90;;;;;;5064769;28;20020;-69
2021/01/04 09:43:26;;;;;;;14.02;8.60;;;3.60;99.90;;;;;;5092952;28;19943;-69
2021/01/04 09:45:53;;;;;;;13.73;8.07;;;3.50;99.90;;;;;;5057970;28;20179;-69
2021/01/04 09:48:38;;;;;;;13.63;8.48;;;3.50;99.90;;;;;;5066868;28;20021;-69
2021/01/04 09:51:07;;;;;;;12.43;8.43;;;3.40;99.90;;;;;;5052855;28;20032;-69
2021/01/04 09:53:39;;;;;;;18.35;9.95;;;3.40;99.90;;;;;;5053483;28;20048;-70
2021/01/04 09:56:12;;;;;;;14.77;9.35;;;3.40;99.90;;;;;;5052427;28;20047;-70
2021/01/04 09:58:40;;;;;;;15.65;9.25;;;3.40;99.90;;;;;;5086753;28;20031;-70
2021/01/04 10:01:11;;;;;;;16.75;9.48;;;3.40;99.90;;;;;;5070806;28;20044;-70
2021/01/04 10:03:38;;;;;;;14.77;9.43;;;3.50;99.90;;;;;;5066221;28;20103;-70
2021/01/04 10:06:09;;;;;;;19.08;9.57;;;3.50;99.90;;;;;;5071123;28;20060;-70
2021/01/04 10:08:37;;;;;;;14.00;9.13;;;3.50;99.90;;;;;;5067846;28;20052;-70
2021/01/04 10:11:06;;;;;;;15.25;8.75;;;3.60;99.90;;;;;;5057613;28;20021;-70
2021/01/04 10:13:34;;;;;;;13.15;8.73;;;3.60;99.90;;;;;;5053522;28;20021;-71
2021/01/04 10:16:04;;;;;;;17.00;8.25;;;3.60;99.90;;;;;;5072231;28;20385;-71
2021/01/04 10:18:53;;;;;;;16.40;8.80;;;3.60;99.90;;;;;;5061068;28;20095;-70
2021/01/04 10:21:34;;;;;;;16.45;9.75;;;3.70;99.90;;;;;;5051479;28;20044;-70
2021/01/04 10:24:07;;;;;;;19.15;9.77;;;3.70;99.90;;;;;;5051809;28;20108;-71
2021/01/04 10:26:41;;;;;;;18.10;10.30;;;3.70;99.90;;;;;;5051957;28;20099;-71
2021/01/04 10:29:15;;;;;;;20.90;11.90;;;3.70;99.70;;;;;;5059860;28;20036;-71
2021/01/04 10:31:42;;;;;;;18.05;11.25;;;3.70;99.90;;;;;;5070000;28;20035;-71
2021/01/04 10:34:13;;;;;;;16.70;10.90;;;3.70;99.90;;;;;;5071990;28;20120;-71
2021/01/04 10:36:42;;;;;;;21.98;10.57;;;3.70;99.80;;;;;;5079651;28;20021;-71
2021/01/04 10:39:31;;;;;;;15.75;9.73;;;3.60;99.70;;;;;;5062646;28;20431;-70
2021/01/04 10:42:06;;;;;;;18.45;9.77;;;3.60;99.80;;;;;;5051263;28;20115;-71
2021/01/04 10:44:32;;;;;;;20.95;11.85;;;3.50;99.90;;;;;;5051834;28;20485;-71
2021/01/04 10:47:13;;;;;;;22.73;10.57;;;3.60;99.90;;;;;;5050440;28;20029;-71
2021/01/04 10:49:38;;;;;;;20.27;11.13;;;3.50;99.90;;;;;;5070807;28;20037;-71
2021/01/04 10:52:04;;;;;;;20.30;10.90;;;3.60;99.90;;;;;;5065364;28;20029;-68
2021/01/04 10:54:39;;;;;;;20.33;10.35;;;3.60;99.90;;;;;;5063579;28;20044;-68
2021/01/04 10:57:29;;;;;;;23.38;10.85;;;3.60;99.90;;;;;;5056548;28;20111;-68
2021/01/04 11:00:06;;;;;;;16.98;9.43;;;3.50;99.90;;;;;;5042659;28;20043;-69
2021/01/04 11:02:47;;;;;;;15.90;9.50;;;3.60;99.90;;;;;;5069685;28;20032;-68
2021/01/04 11:05:16;;;;;;;20.83;10.27;;;3.60;99.90;;;;;;5071015;28;20029;-69
2021/01/04 11:07:42;;;;;;;20.58;11.30;;;3.60;99.90;;;;;;5060511;28;20033;-69
2021/01/04 11:10:22;;;;;;;15.43;9.77;;;3.70;99.90;;;;;;5058323;28;20028;-71
2021/01/04 11:12:51;;;;;;;16.95;9.02;;;3.60;99.80;;;;;;5061291;28;20104;-70
2021/01/04 11:15:35;;;;;;;19.35;9.60;;;3.60;99.90;;;;;;5051248;28;20587;-70
2021/01/04 11:18:06;;;;;;;21.67;10.77;;;3.50;99.90;;;;;;5065442;28;20389;-69
2021/01/04 11:20:33;;;;;;;18.73;9.07;;;3.40;99.90;;;;;;5071129;28;20056;-70
2021/01/04 11:23:08;;;;;;;16.38;8.95;;;3.30;99.90;;;;;;5068978;28;20174;-72
2021/01/04 11:25:35;;;;;;;21.08;10.50;;;3.30;99.90;;;;;;5065067;28;20036;-71
2021/01/04 11:28:01;;;;;;;18.85;8.85;;;3.30;99.90;;;;;;5055750;28;20106;-72
2021/01/04 11:30:29;;;;;;;17.55;10.30;;;3.30;99.90;;;;;;5050936;28;20071;-72
2021/01/04 11:32:56;;;;;;;20.98;10.43;;;3.30;99.90;;;;;;5050969;28;20386;-72
2021/01/04 11:35:22;;;;;;;19.30;9.93;;;3.20;99.90;;;;;;5054492;28;20025;-71
2021/01/04 11:37:47;;;;;;;22.35;10.68;;;3.20;99.90;;;;;;5055043;28;20097;-72
2021/01/04 11:40:13;;;;;;;20.95;11.07;;;3.30;99.90;;;;;;5052924;28;20021;-71
2021/01/04 11:42:39;;;;;;;18.08;8.98;;;3.20;99.90;;;;;;5057166;28;20037;-71
2021/01/04 11:45:09;;;;;;;26.65;9.95;;;3.20;99.90;;;;;;5072913;28;20040;-72
2021/01/04 11:47:36;;;;;;;18.98;10.75;;;3.20;99.90;;;;;;5065821;28;20094;-72
2021/01/04 11:50:05;;;;;;;20.23;10.45;;;3.20;99.90;;;;;;5069979;28;20057;-71
2021/01/04 11:52:31;;;;;;;25.52;11.82;;;3.10;99.90;;;;;;5058792;28;20044;-72
2021/01/04 11:54:57;;;;;;;23.77;10.50;;;3.20;99.90;;;;;;5054678;28;20513;-71
2021/01/04 11:57:22;;;;;;;20.70;12.00;;;3.20;99.90;;;;;;5060308;28;20027;-71
2021/01/04 11:59:51;;;;;;;23.55;11.07;;;3.20;99.90;;;;;;5074860;28;20013;-73
2021/01/04 12:02:17;;;;;;;20.92;11.20;;;3.10;99.90;;;;;;5066637;28;20041;-73
2021/01/04 12:04:44;;;;;;;20.35;10.65;;;3.10;99.90;;;;;;5054029;28;20025;-72
2021/01/04 12:07:10;;;;;;;22.40;11.57;;;3.10;99.90;;;;;;5056617;28;20028;-72
2021/01/04 12:09:35;;;;;;;23.00;11.65;;;3.10;99.90;;;;;;5062762;28;20021;-74
2021/01/04 12:12:01;;;;;;;25.10;11.45;;;3.10;99.90;;;;;;5061183;28;20036;-74
2021/01/04 12:14:28;;;;;;;23.13;11.82;;;3.10;99.90;;;;;;5058138;28;20032;-74
2021/01/04 12:16:53;;;;;;;20.92;11.25;;;3.10;99.90;;;;;;5054961;28;20060;-74
2021/01/04 12:19:19;;;;;;;21.17;10.82;;;3.10;99.90;;;;;;5062819;28;20056;-74
2021/01/04 12:21:44;;;;;;;18.40;10.43;;;3.10;99.90;;;;;;5052279;28;20040;-74
2021/01/04 12:24:10;;;;;;;21.20;10.75;;;3.10;99.90;;;;;;5050013;28;20504;-75
2021/01/04 12:26:36;;;;;;;24.65;11.82;;;3.10;99.90;;;;;;5048988;28;20090;-75
2021/01/04 12:29:02;;;;;;;19.00;10.30;;;3.10;99.90;;;;;;5060575;28;20102;-74
2021/01/04 12:31:28;;;;;;;18.67;10.20;;;3.10;99.90;;;;;;5047744;28;20481;-74
2021/01/04 12:33:55;;;;;;;25.95;11.85;;;3.20;99.90;;;;;;5049901;28;20021;-75
2021/01/04 12:36:24;;;;;;;22.17;10.40;;;3.20;99.90;;;;;;5048400;28;20089;-75
2021/01/04 12:38:50;;;;;;;19.38;10.52;;;3.20;99.90;;;;;;5052574;28;20025;-74
2021/01/04 12:41:17;;;;;;;22.70;10.70;;;3.20;99.90;;;;;;5049681;28;20069;-78
2021/01/04 12:43:44;;;;;;;17.15;9.75;;;3.20;99.90;;;;;;5049983;28;20024;-75
2021/01/04 12:46:11;;;;;;;19.05;9.65;;;3.20;99.90;;;;;;5048830;28;20376;-75
2021/01/04 12:48:37;;;;;;;15.15;8.68;;;3.30;99.90;;;;;;5050574;28;20029;-74
2021/01/04 12:51:02;;;;;;;17.42;9.52;;;3.30;99.90;;;;;;5048723;28;20122;-76
2021/01/04 12:53:28;;;;;;;20.50;10.52;;;3.30;99.90;;;;;;5049861;28;20047;-73
2021/01/04 12:55:53;;;;;;;19.83;10.07;;;3.30;99.90;;;;;;5049204;28;20029;-75
2021/01/04 12:58:20;;;;;;;18.55;11.55;;;3.30;99.90;;;;;;5049500;28;20036;-75
2021/01/04 13:00:47;;;;;;;19.30;10.32;;;3.30;99.90;;;;;;5048416;28;20108;-75
2021/01/04 13:03:14;;;;;;;15.75;9.93;;;3.20;99.90;;;;;;5049974;28;20115;-75
2021/01/04 13:05:40;;;;;;;16.33;10.20;;;3.10;99.90;;;;;;5048683;28;20459;-75
2021/01/04 13:08:05;;;;;;;25.73;12.55;;;3.20;99.90;;;;;;5050282;28;20119;-75
2021/01/04 13:10:31;;;;;;;19.40;11.07;;;3.20;99.90;;;;;;5050576;28;20032;-73
2021/01/04 13:12:56;;;;;;;21.55;10.80;;;3.20;99.90;;;;;;5048138;28;20032;-78
2021/01/04 13:15:22;;;;;;;20.42;10.77;;;3.20;99.90;;;;;;5049655;28;20052;-71
2021/01/04 13:17:47;;;;;;;21.50;11.73;;;3.20;99.90;;;;;;5050412;28;20060;-72
2021/01/04 13:20:13;;;;;;;21.48;11.13;;;3.20;99.90;;;;;;5049379;28;20033;-74
2021/01/04 13:22:41;;;;;;;21.60;11.30;;;3.20;99.90;;;;;;5051057;28;20090;-70
2021/01/04 13:25:10;;;;;;;21.30;11.35;;;3.30;99.90;;;;;;5048420;28;20074;-71
2021/01/04 13:27:36;;;;;;;20.05;10.85;;;3.30;99.90;;;;;;5048580;28;20044;-72
2021/01/04 13:30:03;;;;;;;24.58;12.48;;;3.30;99.90;;;;;;5047558;28;20029;-72
2021/01/04 13:32:29;;;;;;;25.17;12.98;;;3.30;99.90;;;;;;5049201;28;20108;-72
2021/01/04 13:34:54;;;;;;;19.92;10.93;;;3.30;99.90;;;;;;5047649;28;20541;-72
2021/01/04 13:37:20;;;;;;;21.90;11.18;;;3.20;99.90;;;;;;5047856;28;20031;-72